Time;durP1;ratioP1;P1;durP2;ratioP2;P2;SDS_P1;SDS_P2;PMS_P1;PMS_P2;Temp;Humidity;BMP_temperature;BMP_pressure;BME280_temperature;BME280_humidity;BME280_pressure;Samples;Min_cycle;Max_cycle;Signal;HPM_P1;HPM_P2
2022/04/29 00:02:08;;;;;;;;;;;6.40;99.90;;;;;;5094866;28;20397;-48
2022/04/29 00:04:35;;;;;;;;;;;6.40;99.90;;;;;;5095110;28;20007;-47
2022/04/29 00:07:00;;;;;;;;;;;6.40;99.90;;;;;;5094828;28;19927;-48
2022/04/29 00:09:26;;;;;;;;;;;6.40;99.90;;;;;;5094851;28;19924;-47
2022/04/29 00:11:52;;;;;;;;;;;6.50;99.90;;;;;;5094504;28;19923;-48
2022/04/29 00:14:20;;;;;;;;;;;;;;;;;;5094551;28;19977;-48
2022/04/29 00:16:45;;;;;;;;;;;;;;;;;;5076434;28;20293;-52
2022/04/29 00:19:11;;;;;;;;;;;;;;;;;;5094663;28;19924;-48
2022/04/29 00:21:37;;;;;;;;;;;;;;;;;;5094760;28;20010;-48
2022/04/29 00:24:03;;;;;;;;;;;;;;;;;;5094643;28;19978;-50
2022/04/29 00:26:29;;;;;;;;;;;;;;;;;;5094602;28;20313;-47
2022/04/29 00:28:55;;;;;;;;;;;;;;;;;;5094236;28;20054;-48
2022/04/29 00:31:21;;;;;;;;;;;;;;;;;;5094511;28;19928;-47
2022/04/29 00:33:47;;;;;;;;;;;;;;;;;;5094443;28;20310;-48
2022/04/29 00:36:14;;;;;;;;;;;;;;;;;;5094382;28;19931;-48
2022/04/29 00:38:40;;;;;;;;;;;;;;;;;;5094247;28;19924;-47
2022/04/29 00:41:06;;;;;;;;;;;;;;;;;;5094192;28;19969;-46
2022/04/29 00:43:32;;;;;;;;;;;;;;;;;;5094035;28;19931;-46
2022/04/29 00:45:58;;;;;;;;;;;;;;;;;;5094119;28;19931;-47
2022/04/29 00:48:24;;;;;;;;;;;;;;;;;;5094136;28;20370;-46
2022/04/29 00:50:49;;;;;;;;;;;6.50;99.90;;;;;;5094082;28;19977;-46
2022/04/29 00:53:15;;;;;;;;;;;6.20;99.90;;;;;;5094082;28;19924;-46
2022/04/29 00:55:41;;;;;;;;;;;6.20;99.90;;;;;;5094013;28;19924;-47
2022/04/29 00:58:16;;;;;;;;;;;6.10;99.90;;;;;;5093800;28;19924;-46
2022/04/29 01:00:41;;;;;;;;;;;6.10;99.90;;;;;;5094060;28;19970;-45
2022/04/29 01:03:10;;;;;;;;;;;6.00;99.90;;;;;;5093696;28;19928;-47
2022/04/29 01:05:37;;;;;;;;;;;6.00;99.90;;;;;;5093808;28;20013;-51
2022/04/29 01:08:02;;;;;;;;;;;5.90;99.90;;;;;;5093790;28;20301;-48
2022/04/29 01:10:28;;;;;;;;;;;5.90;99.90;;;;;;5075500;28;19924;-48
2022/04/29 01:12:55;;;;;;;;;;;5.90;99.90;;;;;;5093940;28;19963;-48
2022/04/29 01:15:21;;;;;;;;;;;5.80;99.90;;;;;;5093838;28;20384;-47
2022/04/29 01:17:47;;;;;;;;;;;5.80;99.90;;;;;;5075440;28;19987;-46
2022/04/29 01:20:14;;;;;;;;;;;5.80;99.90;;;;;;5093452;28;20305;-48
2022/04/29 01:22:40;;;;;;;;;;;5.70;99.90;;;;;;5092921;28;20019;-49
2022/04/29 01:25:05;;;;;;;;;;;5.70;99.90;;;;;;5093480;28;20008;-51
2022/04/29 01:27:31;;;;;;;;;;;5.70;99.90;;;;;;5093672;28;19991;-46
2022/04/29 01:30:02;;;;;;;;;;;5.70;99.90;;;;;;5093668;28;19931;-47
2022/04/29 01:32:30;;;;;;;;;;;5.60;99.90;;;;;;5093562;28;19930;-49
2022/04/29 01:34:55;;;;;;;;;;;5.60;99.90;;;;;;5093508;28;19947;-48
2022/04/29 01:37:21;;;;;;;;;;;5.60;99.90;;;;;;5093760;28;20394;-46
2022/04/29 01:39:47;;;;;;;;;;;5.50;99.90;;;;;;5075544;28;19970;-50
2022/04/29 01:42:12;;;;;;;;;;;5.50;99.90;;;;;;5093439;28;20010;-49
2022/04/29 01:44:38;;;;;;;;;;;5.50;99.90;;;;;;5093369;28;19978;-46
2022/04/29 01:47:03;;;;;;;;;;;5.50;99.90;;;;;;5093302;28;19924;-48
2022/04/29 01:52:04;;;;;;;;;;;5.50;99.90;;;;;;5112795;22;19924;-51
2022/04/29 01:54:30;;;;;;;;;;;5.50;99.90;;;;;;5117269;28;19931;-49
2022/04/29 01:56:57;;;;;;;;;;;5.50;99.90;;;;;;5099679;28;21431;-49
2022/04/29 01:59:22;;;;;;;;;;;5.50;99.90;;;;;;5108589;28;19983;-48
2022/04/29 02:01:48;;;;;;;;;;;5.50;99.90;;;;;;5119966;28;20405;-48
2022/04/29 02:04:14;;;;;;;;;;;5.50;99.90;;;;;;5120548;28;19947;-48
2022/04/29 02:06:39;;;;;;;;;;;5.50;99.90;;;;;;5120852;28;19931;-49
2022/04/29 02:09:05;;;;;;;;;;;5.50;99.90;;;;;;5102927;28;19981;-46
2022/04/29 02:11:31;;;;;;;;;;;5.40;99.90;;;;;;5101001;28;19925;-47
2022/04/29 02:13:56;;;;;;;;;;;5.40;99.90;;;;;;5101196;28;20328;-49
2022/04/29 02:16:22;;;;;;;;;;;5.40;99.90;;;;;;5100037;28;19928;-52
2022/04/29 02:18:48;;;;;;;;;;;5.40;99.90;;;;;;5099859;28;20378;-49
2022/04/29 02:21:13;;;;;;;;;;;5.30;99.90;;;;;;5100578;28;20010;-49
2022/04/29 02:23:39;;;;;;;;;;;5.30;99.90;;;;;;5100480;28;19925;-50
2022/04/29 02:26:04;;;;;;;;;;;5.30;99.90;;;;;;5118063;28;20427;-48
2022/04/29 02:28:31;;;;;;;;;;;5.30;99.90;;;;;;5121135;28;19924;-47
2022/04/29 02:30:57;;;;;;;;;;;5.30;99.90;;;;;;5120725;28;20273;-50
2022/04/29 02:33:22;;;;;;;;;;;5.20;99.90;;;;;;5121231;28;19924;-48
2022/04/29 02:35:48;;;;;;;;;;;5.20;99.90;;;;;;5124201;28;19924;-48
2022/04/29 02:38:14;;;;;;;;;;;5.20;99.90;;;;;;5124070;28;19931;-50
2022/04/29 02:40:39;;;;;;;;;;;5.20;99.90;;;;;;5124875;28;19931;-50
2022/04/29 02:43:05;;;;;;;;;;;5.20;99.90;;;;;;5124984;28;19931;-51
2022/04/29 02:45:30;;;;;;;;;;;5.20;99.90;;;;;;5124366;28;19927;-51
2022/04/29 02:47:56;;;;;;;;;;;5.20;99.90;;;;;;5124087;28;19995;-48
2022/04/29 02:50:21;;;;;;;;;;;5.20;99.90;;;;;;5123464;28;19977;-49
2022/04/29 02:52:47;;;;;;;;;;;5.20;99.90;;;;;;5124069;28;19969;-50
2022/04/29 02:55:12;;;;;;;;;;;5.20;99.90;;;;;;5123636;28;20293;-50
2022/04/29 02:57:38;;;;;;;;;;;5.20;99.90;;;;;;5123728;28;20014;-48
2022/04/29 03:00:03;;;;;;;;;;;5.20;99.90;;;;;;5106740;28;19932;-49
2022/04/29 03:02:29;;;;;;;;;;;5.20;99.90;;;;;;5103022;28;19992;-49
2022/04/29 03:04:54;;;;;;;;;;;5.20;99.90;;;;;;5102453;28;20017;-51
2022/04/29 03:07:20;;;;;;;;;;;5.20;99.90;;;;;;5102976;28;20427;-48
2022/04/29 03:09:48;;;;;;;;;;;5.20;99.90;;;;;;5103289;28;20007;-50
2022/04/29 03:12:14;;;;;;;;;;;5.20;99.90;;;;;;5103301;28;19974;-51
2022/04/29 03:14:40;;;;;;;;;;;5.20;99.90;;;;;;5103075;28;19925;-49
2022/04/29 03:17:05;;;;;;;;;;;5.20;99.90;;;;;;5103576;28;19924;-49
2022/04/29 03:19:31;;;;;;;;;;;5.20;99.90;;;;;;5102829;28;19924;-51
2022/04/29 03:21:56;;;;;;;;;;;5.30;99.90;;;;;;5102698;28;19928;-47
2022/04/29 03:24:22;;;;;;;;;;;5.30;99.90;;;;;;5103152;28;19924;-48
2022/04/29 03:26:47;;;;;;;;;;;5.30;99.90;;;;;;5102779;28;19970;-48
2022/04/29 03:29:13;;;;;;;;;;;5.30;99.90;;;;;;5104141;28;19924;-48
2022/04/29 03:31:38;;;;;;;;;;;5.30;99.90;;;;;;5104373;28;20305;-48
2022/04/29 03:34:04;;;;;;;;;;;5.30;99.90;;;;;;5103616;28;19931;-48
2022/04/29 03:36:29;;;;;;;;;;;5.30;99.90;;;;;;5103947;28;19924;-47
2022/04/29 03:38:55;;;;;;;;;;;5.30;99.90;;;;;;5103745;28;20420;-52
2022/04/29 03:41:20;;;;;;;;;;;5.30;99.90;;;;;;5102037;28;19968;-48
2022/04/29 03:43:46;;;;;;;;;;;5.30;99.90;;;;;;5102683;28;19924;-47
2022/04/29 03:46:12;;;;;;;;;;;5.30;99.90;;;;;;5101480;28;19936;-48
2022/04/29 03:51:21;;;;;;;;;;;5.30;99.90;;;;;;5102087;28;19932;-52
2022/04/29 03:53:48;;;;;;;;;;;5.30;99.90;;;;;;5102326;28;19924;-48
2022/04/29 03:56:14;;;;;;;;;;;5.20;99.90;;;;;;5102448;28;19924;-51
2022/04/29 03:58:40;;;;;;;;;;;5.30;99.90;;;;;;5101562;28;19931;-48
2022/04/29 04:01:05;;;;;;;;;;;5.20;99.90;;;;;;5102186;28;19924;-48
2022/04/29 04:03:31;;;;;;;;;;;5.20;99.90;;;;;;5102802;28;19924;-50
2022/04/29 04:08:40;;;;;;;;;;;5.10;99.90;;;;;;5102172;28;19930;-49
2022/04/29 04:11:06;;;;;;;;;;;5.10;99.90;;;;;;5102320;28;19985;-50
2022/04/29 04:13:31;;;;;;;;;;;5.10;99.90;;;;;;5102128;28;19924;-48
2022/04/29 04:15:57;;;;;;;;;;;5.00;99.90;;;;;;5101924;28;19924;-48
2022/04/29 04:18:22;;;;;;;;;;;5.10;99.90;;;;;;5102089;28;19928;-48
2022/04/29 04:20:48;;;;;;;;;;;5.10;99.90;;;;;;5101661;28;19924;-52
2022/04/29 04:23:14;;;;;;;;;;;5.10;99.90;;;;;;5101148;28;19931;-49
2022/04/29 04:25:39;;;;;;;;;;;5.10;99.90;;;;;;5102343;28;19968;-50
2022/04/29 04:28:05;;;;;;;;;;;5.10;99.90;;;;;;5101753;28;19931;-51
2022/04/29 04:30:30;;;;;;;;;;;5.10;99.90;;;;;;5101052;28;19931;-49
2022/04/29 04:32:56;;;;;;;;;;;5.20;99.90;;;;;;5101933;28;19931;-47
2022/04/29 04:35:21;;;;;;;;;;;5.30;99.90;;;;;;5101287;28;20019;-51
2022/04/29 04:37:48;;;;;;;;;;;5.20;99.90;;;;;;5100982;28;19924;-51
2022/04/29 04:40:13;;;;;;;;;;;5.30;99.90;;;;;;5100909;28;19924;-49
2022/04/29 04:42:43;;;;;;;;;;;5.30;99.90;;;;;;5101001;28;19947;-48
2022/04/29 04:45:08;;;;;;;;;;;5.40;99.90;;;;;;5101396;28;19928;-47
2022/04/29 04:47:34;;;;;;;;;;;5.40;99.90;;;;;;5101277;28;19998;-50
2022/04/29 04:49:59;;;;;;;;;;;5.50;99.90;;;;;;5100450;28;20389;-51
2022/04/29 04:52:25;;;;;;;;;;;5.60;99.90;;;;;;5101050;28;19986;-47
2022/04/29 04:54:50;;;;;;;;;;;5.70;99.90;;;;;;5099390;28;19930;-53
2022/04/29 04:57:16;;;;;;;;;;;5.80;99.90;;;;;;5099145;28;19924;-50
2022/04/29 04:59:41;;;;;;;;;;;5.90;99.90;;;;;;5100489;28;19931;-50
2022/04/29 05:02:07;;;;;;;;;;;5.90;99.90;;;;;;5100054;28;19924;-48
2022/04/29 05:04:32;;;;;;;;;;;6.00;99.90;;;;;;5100056;28;20016;-50
2022/04/29 05:06:58;;;;;;;;;;;6.10;99.90;;;;;;5100615;28;19930;-50
2022/04/29 05:09:23;;;;;;;;;;;6.10;99.90;;;;;;5100346;28;19946;-48
2022/04/29 05:11:49;;;;;;;;;;;6.20;99.90;;;;;;5099878;28;19924;-51
2022/04/29 05:14:14;;;;;;;;;;;6.20;99.90;;;;;;5099927;28;19946;-50
2022/04/29 05:16:40;;;;;;;;;;;6.30;99.90;;;;;;5100917;28;19963;-51
2022/04/29 05:19:05;;;;;;;;;;;6.50;99.90;;;;;;5100818;28;19924;-49
2022/04/29 05:21:31;;;;;;;;;;;6.50;99.90;;;;;;5100398;28;20406;-51
2022/04/29 05:23:56;;;;;;;;;;;6.70;99.90;;;;;;5099453;28;19924;-48
2022/04/29 05:26:22;;;;;;;;;;;6.80;99.90;;;;;;5100102;28;19928;-48
2022/04/29 05:28:47;;;;;;;;;;;7.20;99.90;;;;;;5099259;28;20007;-47
2022/04/29 05:31:13;;;;;;;;;;;7.60;99.90;;;;;;5099824;28;19924;-49
2022/04/29 05:33:39;;;;;;;;;;;8.10;99.90;;;;;;5102417;28;20003;-51
2022/04/29 05:36:05;;;;;;;;;;;8.50;99.90;;;;;;5102210;28;19931;-48
2022/04/29 05:44:01;;;;;;;;;;;9.40;99.90;;;;;;5104213;28;19953;-48
2022/04/29 05:46:27;;;;;;;;;;;;;;;;;;5105046;28;19924;-49
2022/04/29 05:48:52;;;;;;;;;;;9.70;99.90;;;;;;5105620;28;19924;-49
2022/04/29 05:51:18;;;;;;;;;;;9.30;99.90;;;;;;5104337;28;19946;-49
2022/04/29 05:53:43;;;;;;;;;;;9.10;99.90;;;;;;5103233;28;19931;-50
2022/04/29 05:56:09;;;;;;;;;;;8.80;99.90;;;;;;5102320;28;19924;-49
2022/04/29 05:58:35;;;;;;;;;;;;;;;;;;5100642;28;19927;-47
2022/04/29 06:01:01;;;;;;;;;;;8.40;99.90;;;;;;5100851;28;19924;-48
2022/04/29 06:03:27;;;;;;;;;;;8.20;99.90;;;;;;5101005;28;19927;-48
2022/04/29 06:05:52;;;;;;;;;;;8.10;99.90;;;;;;5100834;28;19988;-53
2022/04/29 06:08:18;;;;;;;;;;;8.10;99.90;;;;;;5099391;28;19924;-51
2022/04/29 06:10:43;;;;;;;;;;;8.00;99.90;;;;;;5104830;28;19980;-47
2022/04/29 06:13:08;;;;;;;;;;;7.90;99.90;;;;;;5104258;28;19931;-51
2022/04/29 06:15:34;;;;;;;;;;;7.90;99.90;;;;;;5104947;28;20011;-48
2022/04/29 06:17:59;;;;;;;;;;;7.80;99.90;;;;;;5104141;28;20348;-50
2022/04/29 06:20:25;;;;;;;;;;;7.80;99.90;;;;;;5103331;28;19979;-47
2022/04/29 06:22:50;;;;;;;;;;;7.90;99.90;;;;;;5105059;28;19975;-50
2022/04/29 06:25:18;;;;;;;;;;;7.90;99.90;;;;;;5104462;28;19924;-52
2022/04/29 06:27:44;;;;;;;;;;;7.80;99.90;;;;;;5104869;28;20029;-49
2022/04/29 06:30:10;;;;;;;;;;;7.90;99.90;;;;;;5104937;28;20382;-48
2022/04/29 06:32:35;;;;;;;;;;;7.90;99.90;;;;;;5103609;28;19931;-49
2022/04/29 06:35:01;;;;;;;;;;;7.90;99.90;;;;;;5105107;28;19931;-52
2022/04/29 06:37:26;;;;;;;;;;;7.90;99.90;;;;;;5104412;28;20007;-49
2022/04/29 06:39:52;;;;;;;;;;;8.00;99.90;;;;;;5105121;28;20062;-49
2022/04/29 06:42:17;;;;;;;;;;;8.00;99.90;;;;;;5105466;28;19931;-47
2022/04/29 06:44:42;;;;;;;;;;;8.10;99.90;;;;;;5105819;28;20015;-47
2022/04/29 06:47:08;;;;;;;;;;;8.10;99.90;;;;;;5105745;28;19928;-48
2022/04/29 06:49:33;;;;;;;;;;;8.10;99.90;;;;;;5106023;28;19992;-48
2022/04/29 06:51:59;;;;;;;;;;;8.20;99.90;;;;;;5106171;28;19930;-48
2022/04/29 06:54:24;;;;;;;;;;;8.20;99.90;;;;;;5105520;28;19985;-47
2022/04/29 06:56:50;;;;;;;;;;;8.20;99.90;;;;;;5105783;28;19924;-48
2022/04/29 06:59:16;;;;;;;;;;;8.20;99.90;;;;;;5105811;28;20179;-47
2022/04/29 07:01:42;;;;;;;;;;;8.20;99.90;;;;;;5106244;28;19931;-48
2022/04/29 07:04:07;;;;;;;;;;;8.20;99.90;;;;;;5105758;28;19924;-49
2022/04/29 07:06:33;;;;;;;;;;;8.30;99.90;;;;;;5105402;28;19928;-49
2022/04/29 07:08:58;;;;;;;;;;;8.50;99.90;;;;;;5105586;28;19930;-47
2022/04/29 07:11:25;;;;;;;;;;;8.60;99.90;;;;;;5106213;28;19978;-49
2022/04/29 07:13:52;;;;;;;;;;;8.60;99.90;;;;;;5106940;28;20135;-48
2022/04/29 07:16:17;;;;;;;;;;;8.70;99.90;;;;;;5107812;28;19931;-47
2022/04/29 07:18:44;;;;;;;;;;;8.70;99.90;;;;;;5107763;28;19956;-47
2022/04/29 07:21:09;;;;;;;;;;;8.70;99.90;;;;;;5106157;28;19993;-47
2022/04/29 07:23:35;;;;;;;;;;;8.80;99.90;;;;;;5106516;28;20370;-47
2022/04/29 07:26:00;;;;;;;;;;;8.80;99.90;;;;;;5106546;28;19946;-49
2022/04/29 07:28:26;;;;;;;;;;;8.90;99.90;;;;;;5107072;28;19931;-47
2022/04/29 07:30:52;;;;;;;;;;;9.00;99.90;;;;;;5107475;28;19924;-48
2022/04/29 07:33:18;;;;;;;;;;;8.90;99.90;;;;;;5107038;28;19931;-47
2022/04/29 07:43:56;;;;;;;;;;;9.20;99.90;;;;;;5106208;28;19962;-50
2022/04/29 07:46:22;;;;;;;;;;;;;;;;;;5105493;28;20317;-48
2022/04/29 07:48:48;;;;;;;;;;;9.30;99.90;;;;;;5106110;28;19947;-47
2022/04/29 07:51:13;;;;;;;;;;;9.30;99.90;;;;;;5105367;28;20429;-48
2022/04/29 07:53:39;;;;;;;;;;;9.50;99.90;;;;;;5103806;28;20382;-51
2022/04/29 07:56:05;;;;;;;;;;;9.60;99.90;;;;;;5103416;28;19924;-50
2022/04/29 07:58:31;;;;;;;;;;;9.80;99.90;;;;;;5103601;28;19925;-49
2022/04/29 08:00:57;;;;;;;;;;;9.80;99.90;;;;;;5102408;28;19931;-48
2022/04/29 08:03:23;;;;;;;;;;;9.90;99.90;;;;;;5103152;28;19931;-48
2022/04/29 08:05:49;;;;;;;;;;;10.10;99.90;;;;;;5102739;28;19924;-49
2022/04/29 08:08:15;;;;;;;;;;;10.50;99.90;;;;;;5102271;28;19953;-48
2022/04/29 08:10:41;;;;;;;;;;;10.40;99.90;;;;;;5102634;28;19946;-48
2022/04/29 08:13:06;;;;;;;;;;;10.50;99.90;;;;;;5102304;28;19924;-51
2022/04/29 08:15:32;;;;;;;;;;;10.40;99.90;;;;;;5102092;28;19960;-49
2022/04/29 08:17:58;;;;;;;;;;;10.40;99.90;;;;;;5102143;28;20344;-49
2022/04/29 08:20:24;;;;;;;;;;;10.40;99.90;;;;;;5101958;28;19924;-48
2022/04/29 08:22:50;;;;;;;;;;;10.50;99.90;;;;;;5101535;28;20178;-48
2022/04/29 08:25:17;;;;;;;;;;;10.60;99.90;;;;;;5100819;28;19970;-48
2022/04/29 08:27:43;;;;;;;;;;;10.90;99.90;;;;;;5100824;28;19931;-48
2022/04/29 08:30:09;;;;;;;;;;;11.10;99.90;;;;;;5099583;28;19924;-47
2022/04/29 08:32:41;;;;;;;;;;;11.50;99.90;;;;;;5101090;28;19924;-48
2022/04/29 08:35:07;;;;;;;;;;;11.30;99.90;;;;;;5100521;28;19945;-47
2022/04/29 08:37:32;;;;;;;;;;;11.50;99.90;;;;;;5100752;28;19924;-49
2022/04/29 08:40:00;;;;;;;;;;;11.50;99.90;;;;;;5099793;28;19924;-51
2022/04/29 08:42:26;;;;;;;;;;;11.50;99.90;;;;;;5098992;28;20433;-48
2022/04/29 08:44:52;;;;;;;;;;;11.40;99.90;;;;;;5098025;28;19924;-46
2022/04/29 08:47:18;;;;;;;;;;;11.60;99.90;;;;;;5098987;28;19928;-48
2022/04/29 08:49:44;;;;;;;;;;;11.40;99.90;;;;;;5098994;28;19925;-46
2022/04/29 08:52:10;;;;;;;;;;;11.00;99.90;;;;;;5098145;28;20023;-47
2022/04/29 09:00:05;;;;;;;;;;;11.30;99.90;;;;;;5098300;28;20336;-46
2022/04/29 09:02:38;;;;;;;;;;;11.30;99.90;;;;;;5098066;28;19971;-49
2022/04/29 09:05:06;;;;;;;;;;;11.70;99.90;;;;;;5098762;28;19932;-49
2022/04/29 09:07:51;;;;;;;;;;;11.70;99.90;;;;;;5099067;28;19924;-46
2022/04/29 09:10:16;;;;;;;;;;;11.80;99.90;;;;;;5099617;28;20349;-48
2022/04/29 09:12:42;;;;;;;;;;;11.70;99.90;;;;;;5098717;28;19924;-45
2022/04/29 09:15:11;;;;;;;;;;;12.00;99.90;;;;;;5098970;28;20301;-47
2022/04/29 09:17:39;;;;;;;;;;;12.20;99.90;;;;;;5099486;28;20284;-48
2022/04/29 09:20:16;;;;;;;;;;;12.10;99.90;;;;;;5097625;28;20393;-49
2022/04/29 09:22:50;;;;;;;;;;;11.80;99.90;;;;;;5098850;28;19924;-51
2022/04/29 09:25:16;;;;;;;;;;;11.80;99.90;;;;;;5098589;28;19975;-48
2022/04/29 09:27:58;;;;;;;;;;;12.00;99.90;;;;;;5099061;28;19963;-49
2022/04/29 09:30:34;;;;;;;;;;;12.00;99.90;;;;;;5098530;28;19924;-48
2022/04/29 09:32:59;;;;;;;;;;;11.90;99.90;;;;;;5098273;28;19993;-46
2022/04/29 09:35:38;;;;;;;;;;;12.00;99.90;;;;;;5097834;28;20370;-47
2022/04/29 09:40:48;;;;;;;;;;;12.10;99.90;;;;;;5097781;28;20476;-46
2022/04/29 09:43:14;;;;;;;;;;;12.00;99.90;;;;;;5097212;28;19959;-46
2022/04/29 09:45:39;;;;;;;;;;;12.00;99.90;;;;;;5098023;28;20297;-46
2022/04/29 09:48:08;;;;;;;;;;;12.20;99.90;;;;;;5097570;28;19924;-47
2022/04/29 09:50:47;;;;;;;;;;;12.40;99.90;;;;;;5097285;28;19924;-48
2022/04/29 09:53:16;;;;;;;;;;;12.30;99.90;;;;;;5097276;28;19920;-47
2022/04/29 09:55:41;;;;;;;;;;;12.30;99.90;;;;;;5097256;28;20397;-46
2022/04/29 09:58:09;;;;;;;;;;;12.20;99.90;;;;;;5097045;28;19977;-48
2022/04/29 10:00:35;;;;;;;;;;;12.20;99.90;;;;;;5097007;28;19928;-49
2022/04/29 10:03:03;;;;;;;;;;;12.50;99.90;;;;;;5097042;28;20504;-46
2022/04/29 10:05:30;;;;;;;;;;;12.50;99.90;;;;;;5094411;28;19967;-47
2022/04/29 10:07:57;;;;;;;;;;;12.60;99.90;;;;;;5095551;28;19930;-48
2022/04/29 10:10:24;;;;;;;;;;;12.70;99.90;;;;;;5094967;28;19931;-46
2022/04/29 10:12:50;;;;;;;;;;;12.90;99.90;;;;;;5094103;28;19924;-46
2022/04/29 10:15:17;;;;;;;;;;;13.10;99.90;;;;;;5093555;28;20297;-46
2022/04/29 10:23:15;;;;;;;;;;;12.70;99.90;;;;;;5093768;28;20018;-46
2022/04/29 10:25:41;;;;;;;;;;;12.80;99.90;;;;;;5093584;28;19924;-46
2022/04/29 10:28:07;;;;;;;;;;;12.40;99.90;;;;;;5093645;28;19931;-49
2022/04/29 10:30:34;;;;;;;;;;;12.50;99.90;;;;;;5093456;28;20289;-47
2022/04/29 10:33:00;;;;;;;;;;;12.70;99.90;;;;;;5093403;28;19970;-48
2022/04/29 10:35:42;;;;;;;;;;;12.70;99.90;;;;;;5093343;28;19931;-47
2022/04/29 10:38:11;;;;;;;;;;;12.90;99.90;;;;;;5093190;28;19928;-50
2022/04/29 10:40:37;;;;;;;;;;;13.10;99.90;;;;;;5093224;28;19924;-47
2022/04/29 10:43:07;;;;;;;;;;;13.30;99.90;;;;;;5093687;28;20023;-46
2022/04/29 10:45:32;;;;;;;;;;;13.30;99.90;;;;;;5093538;28;19931;-46
2022/04/29 10:47:58;;;;;;;;;;;13.80;99.90;;;;;;5094283;28;19924;-47
2022/04/29 10:50:29;;;;;;;;;;;13.90;99.90;;;;;;5094617;28;19924;-49
2022/04/29 10:53:04;;;;;;;;;;;13.50;99.90;;;;;;5094791;28;19925;-49
2022/04/29 10:55:31;;;;;;;;;;;13.30;99.90;;;;;;5096051;28;20003;-50
2022/04/29 10:58:02;;;;;;;;;;;13.20;99.90;;;;;;5097691;28;19928;-47
2022/04/29 11:00:28;;;;;;;;;;;13.20;99.90;;;;;;5098015;28;19920;-47
2022/04/29 11:02:54;;;;;;;;;;;13.30;99.90;;;;;;5096441;28;19931;-47
2022/04/29 11:05:34;;;;;;;;;;;13.40;99.90;;;;;;5097721;28;19982;-46
2022/04/29 11:08:10;;;;;;;;;;;13.30;99.90;;;;;;5097763;28;19924;-46
2022/04/29 11:10:55;;;;;;;;;;;13.00;99.90;;;;;;5097110;28;19959;-48
2022/04/29 11:13:21;;;;;;;;;;;13.20;99.90;;;;;;5097011;28;20408;-47
2022/04/29 11:15:46;;;;;;;;;;;13.30;99.90;;;;;;5097478;28;19955;-47
2022/04/29 11:18:16;;;;;;;;;;;13.10;99.90;;;;;;5097194;28;20286;-46
2022/04/29 11:20:45;;;;;;;;;;;13.20;99.90;;;;;;5096924;28;19928;-47
2022/04/29 11:25:55;;;;;;;;;;;13.40;99.90;;;;;;5097221;28;19931;-47
2022/04/29 11:28:21;;;;;;;;;;;13.60;99.90;;;;;;5097650;28;19931;-48
2022/04/29 11:30:47;;;;;;;;;;;13.60;99.90;;;;;;5097625;28;20007;-46
2022/04/29 11:33:13;;;;;;;;;;;13.50;99.90;;;;;;5097416;28;20000;-47
2022/04/29 11:35:39;;;;;;;;;;;13.40;99.90;;;;;;5097404;28;19924;-49
2022/04/29 11:38:05;;;;;;;;;;;13.30;99.90;;;;;;5097516;28;20378;-47
2022/04/29 11:40:30;;;;;;;;;;;13.40;99.90;;;;;;5097207;28;19928;-48
2022/04/29 11:42:56;;;;;;;;;;;13.40;99.90;;;;;;5079141;28;20412;-46
2022/04/29 11:45:22;;;;;;;;;;;13.40;99.90;;;;;;5097743;28;19931;-49
2022/04/29 11:47:47;;;;;;;;;;;13.50;99.90;;;;;;5097456;28;20289;-46
2022/04/29 11:50:13;;;;;;;;;;;13.80;99.90;;;;;;5097606;28;19924;-49
2022/04/29 11:52:39;;;;;;;;;;;13.50;99.90;;;;;;5098285;28;20335;-47
2022/04/29 11:55:05;;;;;;;;;;;13.50;99.90;;;;;;5097931;28;19930;-46
2022/04/29 11:57:33;;;;;;;;;;;13.40;99.90;;;;;;5097487;28;20018;-47
2022/04/29 11:59:58;;;;;;;;;;;13.30;99.90;;;;;;5097436;28;19924;-47
2022/04/29 12:02:24;;;;;;;;;;;13.20;99.90;;;;;;5097139;28;19930;-47
2022/04/29 12:04:54;;;;;;;;;;;13.10;99.90;;;;;;5096971;28;20325;-47
2022/04/29 12:07:20;;;;;;;;;;;13.20;99.90;;;;;;5095772;28;19924;-50
2022/04/29 12:09:45;;;;;;;;;;;13.30;99.90;;;;;;5096553;28;19928;-47
2022/04/29 12:12:27;;;;;;;;;;;13.10;99.90;;;;;;5096427;28;19988;-46
2022/04/29 12:14:55;;;;;;;;;;;13.10;99.90;;;;;;5096800;28;19924;-46
2022/04/29 12:17:30;;;;;;;;;;;13.10;99.90;;;;;;5095946;28;20003;-47
2022/04/29 12:19:56;;;;;;;;;;;12.90;99.90;;;;;;5096029;28;19949;-47
2022/04/29 12:22:28;;;;;;;;;;;13.00;99.90;;;;;;5095752;28;19924;-47
2022/04/29 12:24:53;;;;;;;;;;;13.10;99.80;;;;;;5095753;28;20422;-47
2022/04/29 12:27:27;;;;;;;;;;;13.20;99.90;;;;;;5095711;28;19924;-47
2022/04/29 12:34:48;;;;;;;;;;;13.20;99.90;;;;;;5095763;28;19980;-50
2022/04/29 12:35:29;;;;;;;;;;;13.40;99.90;;;;;;5095890;28;20426;-49
2022/04/29 12:37:55;;;;;;;;;;;13.40;99.90;;;;;;5095492;28;19927;-47
2022/04/29 12:40:27;;;;;;;;;;;13.10;99.90;;;;;;5095661;28;19924;-49
2022/04/29 12:42:53;;;;;;;;;;;13.00;99.90;;;;;;5095185;28;20062;-47
2022/04/29 12:45:24;;;;;;;;;;;13.00;99.90;;;;;;5095279;28;19982;-47
2022/04/29 12:47:59;;;;;;;;;;;12.90;99.90;;;;;;5095559;28;19939;-48
2022/04/29 12:50:26;;;;;;;;;;;12.90;99.90;;;;;;5094513;28;19924;-46
2022/04/29 12:52:53;;;;;;;;;;;12.70;99.90;;;;;;5094544;28;19955;-47
2022/04/29 12:55:18;;;;;;;;;;;12.60;99.90;;;;;;5094578;28;20553;-46
2022/04/29 12:57:45;;;;;;;;;;;12.90;99.90;;;;;;5094466;28;19976;-47
2022/04/29 13:00:10;;;;;;;;;;;12.70;99.90;;;;;;5094307;28;19977;-47
2022/04/29 13:02:36;;;;;;;;;;;12.70;99.90;;;;;;5094334;28;19924;-46
2022/04/29 13:05:02;;;;;;;;;;;12.80;99.90;;;;;;5094640;28;19977;-47
2022/04/29 13:07:29;;;;;;;;;;;12.80;99.90;;;;;;5094722;28;20010;-48
2022/04/29 13:09:55;;;;;;;;;;;12.80;99.90;;;;;;5094496;28;19978;-47
2022/04/29 13:12:20;;;;;;;;;;;12.80;99.90;;;;;;5094408;28;20373;-49
2022/04/29 13:14:46;;;;;;;;;;;12.90;99.90;;;;;;5094538;28;20037;-46
2022/04/29 13:17:11;;;;;;;;;;;12.80;99.90;;;;;;5094630;28;19978;-48
2022/04/29 13:19:38;;;;;;;;;;;12.90;99.90;;;;;;5094022;28;20255;-46
2022/04/29 13:22:03;;;;;;;;;;;13.00;99.90;;;;;;5094384;28;19931;-47
2022/04/29 13:24:29;;;;;;;;;;;12.80;99.90;;;;;;5094250;28;19924;-50
2022/04/29 13:26:54;;;;;;;;;;;12.70;99.90;;;;;;5094101;28;20393;-49
2022/04/29 13:29:20;;;;;;;;;;;13.20;99.90;;;;;;5094481;28;19924;-47
2022/04/29 13:31:45;;;;;;;;;;;13.10;99.90;;;;;;5094624;28;19974;-47
2022/04/29 13:34:11;;;;;;;;;;;12.90;99.90;;;;;;5092782;28;19950;-47
2022/04/29 13:36:36;;;;;;;;;;;12.80;99.90;;;;;;5094515;28;19927;-46
2022/04/29 13:39:02;;;;;;;;;;;12.80;99.90;;;;;;5094352;28;19924;-48
2022/04/29 13:41:27;;;;;;;;;;;12.70;99.90;;;;;;5093907;28;19931;-46
2022/04/29 13:43:53;;;;;;;;;;;12.60;99.90;;;;;;5093766;28;19924;-47
2022/04/29 13:46:18;;;;;;;;;;;12.60;99.90;;;;;;5093741;28;19924;-47
2022/04/29 13:48:44;;;;;;;;;;;12.50;99.90;;;;;;5093610;28;19924;-47
2022/04/29 13:51:09;;;;;;;;;;;12.50;99.90;;;;;;5093917;28;19924;-48
2022/04/29 13:53:37;;;;;;;;;;;12.40;99.90;;;;;;5093719;28;19924;-47
2022/04/29 13:56:02;;;;;;;;;;;12.60;99.90;;;;;;5093776;28;19924;-49
2022/04/29 13:58:28;;;;;;;;;;;12.50;99.90;;;;;;5093942;28;19924;-51
2022/04/29 14:00:54;;;;;;;;;;;12.40;99.90;;;;;;5093725;28;20275;-47
2022/04/29 14:03:22;;;;;;;;;;;12.40;99.90;;;;;;5093480;28;20011;-50
2022/04/29 14:05:48;;;;;;;;;;;12.50;99.90;;;;;;5093636;28;19930;-47
2022/04/29 14:08:14;;;;;;;;;;;12.70;99.90;;;;;;5093417;28;20304;-47
2022/04/29 14:10:39;;;;;;;;;;;12.50;99.90;;;;;;5093533;28;19970;-47
2022/04/29 14:13:08;;;;;;;;;;;12.40;99.90;;;;;;5093471;28;19970;-46
2022/04/29 14:15:34;;;;;;;;;;;12.30;99.90;;;;;;5093609;28;19931;-48
2022/04/29 14:17:59;;;;;;;;;;;12.30;99.90;;;;;;5093355;28;20289;-46
2022/04/29 14:20:25;;;;;;;;;;;12.20;99.90;;;;;;5093689;28;19925;-47
2022/04/29 14:22:50;;;;;;;;;;;12.40;99.90;;;;;;5093526;28;20355;-46
2022/04/29 14:25:16;;;;;;;;;;;12.20;99.90;;;;;;5093865;28;19931;-47
2022/04/29 14:27:42;;;;;;;;;;;12.10;99.90;;;;;;5093484;28;19931;-49
2022/04/29 14:30:08;;;;;;;;;;;12.20;99.90;;;;;;5095602;28;19973;-47
2022/04/29 14:32:34;;;;;;;;;;;12.00;99.90;;;;;;5097300;28;20283;-47
2022/04/29 14:35:02;;;;;;;;;;;11.90;99.90;;;;;;5097943;28;19943;-49
2022/04/29 14:37:29;;;;;;;;;;;12.00;99.90;;;;;;5098247;28;19924;-50
2022/04/29 14:39:55;;;;;;;;;;;11.90;99.90;;;;;;5097849;28;20339;-50
2022/04/29 14:42:21;;;;;;;;;;;12.00;99.90;;;;;;5097967;28;19930;-48
2022/04/29 14:44:46;;;;;;;;;;;12.00;99.90;;;;;;5097664;28;20353;-48
2022/04/29 14:47:12;;;;;;;;;;;12.10;99.90;;;;;;5097247;28;19947;-48
2022/04/29 14:49:37;;;;;;;;;;;12.20;99.90;;;;;;5097167;28;19928;-47
2022/04/29 14:52:03;;;;;;;;;;;12.10;99.90;;;;;;5096612;28;19979;-50
2022/04/29 14:54:29;;;;;;;;;;;12.00;99.90;;;;;;5097109;28;19969;-49
2022/04/29 14:56:54;;;;;;;;;;;11.90;99.90;;;;;;5097176;28;19931;-52
2022/04/29 14:59:20;;;;;;;;;;;11.90;99.90;;;;;;5096705;28;19924;-47
2022/04/29 15:01:46;;;;;;;;;;;11.90;99.90;;;;;;5097519;28;19947;-49
2022/04/29 15:04:11;;;;;;;;;;;11.90;99.90;;;;;;5097247;28;20366;-46
2022/04/29 15:06:37;;;;;;;;;;;11.90;99.90;;;;;;5096982;28;19924;-48
2022/04/29 15:17:17;;;;;;;;;;;12.00;99.90;;;;;;5096987;28;20426;-51